sensor_id;sensor_type;location;lat;lon;timestamp;temperature;humidity
44647;DHT22;56315;-33.902;151.160;2023-03-23T00:02:24;35.80;98.50
44647;DHT22;56315;-33.902;151.160;2023-03-23T00:04:52;35.20;99.70
44647;DHT22;56315;-33.902;151.160;2023-03-23T00:07:21;35.20;99.40
44647;DHT22;56315;-33.902;151.160;2023-03-23T00:09:51;34.70;99.70
44647;DHT22;56315;-33.902;151.160;2023-03-23T00:12:25;34.60;99.30
44647;DHT22;56315;-33.902;151.160;2023-03-23T00:14:56;34.70;99.60
44647;DHT22;56315;-33.902;151.160;2023-03-23T00:17:24;34.90;99.50
44647;DHT22;56315;-33.902;151.160;2023-03-23T00:19:52;34.70;99.40
44647;DHT22;56315;-33.902;151.160;2023-03-23T00:22:19;34.30;99.70
44647;DHT22;56315;-33.902;151.160;2023-03-23T00:24:48;34.20;99.90
44647;DHT22;56315;-33.902;151.160;2023-03-23T00:27:19;33.70;99.90
44647;DHT22;56315;-33.902;151.160;2023-03-23T00:29:49;33.40;99.90
44647;DHT22;56315;-33.902;151.160;2023-03-23T00:32:21;33.10;99.90
44647;DHT22;56315;-33.902;151.160;2023-03-23T00:34:57;32.70;99.90
44647;DHT22;56315;-33.902;151.160;2023-03-23T00:37:28;32.30;99.90
44647;DHT22;56315;-33.902;151.160;2023-03-23T00:39:55;32.10;99.90
44647;DHT22;56315;-33.902;151.160;2023-03-23T00:42:24;31.90;99.90
44647;DHT22;56315;-33.902;151.160;2023-03-23T00:44:52;31.50;99.90
44647;DHT22;56315;-33.902;151.160;2023-03-23T00:47:30;31.20;99.90
44647;DHT22;56315;-33.902;151.160;2023-03-23T00:49:58;30.90;99.90
44647;DHT22;56315;-33.902;151.160;2023-03-23T00:52:25;30.60;99.90
44647;DHT22;56315;-33.902;151.160;2023-03-23T00:54:53;30.30;99.90
44647;DHT22;56315;-33.902;151.160;2023-03-23T00:57:22;30.20;99.90
44647;DHT22;56315;-33.902;151.160;2023-03-23T00:59:59;30.00;99.90
44647;DHT22;56315;-33.902;151.160;2023-03-23T01:02:28;29.90;99.90
44647;DHT22;56315;-33.902;151.160;2023-03-23T01:04:56;29.70;99.90
44647;DHT22;56315;-33.902;151.160;2023-03-23T01:07:24;29.60;99.90
44647;DHT22;56315;-33.902;151.160;2023-03-23T01:09:54;29.40;99.90
44647;DHT22;56315;-33.902;151.160;2023-03-23T01:12:24;29.30;99.90
44647;DHT22;56315;-33.902;151.160;2023-03-23T01:15:02;29.20;99.90
44647;DHT22;56315;-33.902;151.160;2023-03-23T01:17:29;29.20;99.90
44647;DHT22;56315;-33.902;151.160;2023-03-23T01:19:57;29.30;99.90
44647;DHT22;56315;-33.902;151.160;2023-03-23T01:22:24;29.20;99.90
44647;DHT22;56315;-33.902;151.160;2023-03-23T01:24:52;29.20;99.90
44647;DHT22;56315;-33.902;151.160;2023-03-23T01:27:19;29.20;99.90
44647;DHT22;56315;-33.902;151.160;2023-03-23T01:29:47;29.30;99.90
44647;DHT22;56315;-33.902;151.160;2023-03-23T01:32:32;29.30;99.90
44647;DHT22;56315;-33.902;151.160;2023-03-23T01:35:13;29.40;99.90
44647;DHT22;56315;-33.902;151.160;2023-03-23T01:37:40;29.50;99.90
44647;DHT22;56315;-33.902;151.160;2023-03-23T01:40:08;29.50;99.90
44647;DHT22;56315;-33.902;151.160;2023-03-23T01:42:41;29.50;99.90
44647;DHT22;56315;-33.902;151.160;2023-03-23T01:48:01;29.50;99.90
44647;DHT22;56315;-33.902;151.160;2023-03-23T01:50:34;29.40;99.90
44647;DHT22;56315;-33.902;151.160;2023-03-23T01:53:05;29.10;99.90
44647;DHT22;56315;-33.902;151.160;2023-03-23T01:55:37;29.10;99.90
44647;DHT22;56315;-33.902;151.160;2023-03-23T01:58:05;29.10;99.90
44647;DHT22;56315;-33.902;151.160;2023-03-23T02:00:34;29.20;99.90
44647;DHT22;56315;-33.902;151.160;2023-03-23T02:03:03;29.30;99.90
44647;DHT22;56315;-33.902;151.160;2023-03-23T02:05:34;29.20;99.90
44647;DHT22;56315;-33.902;151.160;2023-03-23T02:08:05;29.30;99.90
44647;DHT22;56315;-33.902;151.160;2023-03-23T02:10:36;29.30;99.90
44647;DHT22;56315;-33.902;151.160;2023-03-23T02:13:06;29.30;99.90
44647;DHT22;56315;-33.902;151.160;2023-03-23T02:21:40;29.00;99.90
44647;DHT22;56315;-33.902;151.160;2023-03-23T02:27:39;28.70;99.90
44647;DHT22;56315;-33.902;151.160;2023-03-23T02:41:30;28.40;99.90
44647;DHT22;56315;-33.902;151.160;2023-03-23T02:43:59;28.30;99.90
44647;DHT22;56315;-33.902;151.160;2023-03-23T02:46:28;28.20;99.90
44647;DHT22;56315;-33.902;151.160;2023-03-23T02:48:57;28.20;99.90
44647;DHT22;56315;-33.902;151.160;2023-03-23T02:51:27;28.10;99.90
44647;DHT22;56315;-33.902;151.160;2023-03-23T02:53:57;28.10;99.90
44647;DHT22;56315;-33.902;151.160;2023-03-23T02:56:27;28.10;99.90
44647;DHT22;56315;-33.902;151.160;2023-03-23T02:58:55;28.10;99.90
44647;DHT22;56315;-33.902;151.160;2023-03-23T03:03:56;28.40;99.90
44647;DHT22;56315;-33.902;151.160;2023-03-23T03:15:09;28.80;99.90
44647;DHT22;56315;-33.902;151.160;2023-03-23T03:17:44;28.70;99.90
44647;DHT22;56315;-33.902;151.160;2023-03-23T03:20:13;28.90;99.90
44647;DHT22;56315;-33.902;151.160;2023-03-23T03:22:44;29.20;99.90
44647;DHT22;56315;-33.902;151.160;2023-03-23T03:25:13;29.40;99.90
44647;DHT22;56315;-33.902;151.160;2023-03-23T03:27:45;29.70;99.90
44647;DHT22;56315;-33.902;151.160;2023-03-23T03:30:20;29.70;99.90
44647;DHT22;56315;-33.902;151.160;2023-03-23T03:32:51;29.50;99.90
44647;DHT22;56315;-33.902;151.160;2023-03-23T03:35:25;29.40;99.90
44647;DHT22;56315;-33.902;151.160;2023-03-23T03:37:53;29.20;99.90
44647;DHT22;56315;-33.902;151.160;2023-03-23T03:40:21;29.00;99.90
44647;DHT22;56315;-33.902;151.160;2023-03-23T03:42:49;28.90;99.90
44647;DHT22;56315;-33.902;151.160;2023-03-23T03:45:18;28.70;99.90
44647;DHT22;56315;-33.902;151.160;2023-03-23T03:47:46;28.70;99.90
44647;DHT22;56315;-33.902;151.160;2023-03-23T03:50:14;28.40;99.90
44647;DHT22;56315;-33.902;151.160;2023-03-23T03:52:41;28.30;99.90
44647;DHT22;56315;-33.902;151.160;2023-03-23T03:55:09;28.20;99.90
44647;DHT22;56315;-33.902;151.160;2023-03-23T03:57:37;28.00;99.90
44647;DHT22;56315;-33.902;151.160;2023-03-23T04:00:06;27.80;99.90
44647;DHT22;56315;-33.902;151.160;2023-03-23T04:02:45;27.60;99.90
44647;DHT22;56315;-33.902;151.160;2023-03-23T04:05:21;27.50;99.90
44647;DHT22;56315;-33.902;151.160;2023-03-23T04:07:49;27.30;99.90
44647;DHT22;56315;-33.902;151.160;2023-03-23T04:10:19;27.20;99.90
44647;DHT22;56315;-33.902;151.160;2023-03-23T04:12:53;27.00;99.90
44647;DHT22;56315;-33.902;151.160;2023-03-23T04:15:20;27.10;99.90
44647;DHT22;56315;-33.902;151.160;2023-03-23T04:17:47;27.10;99.90
44647;DHT22;56315;-33.902;151.160;2023-03-23T04:20:15;26.90;99.90
44647;DHT22;56315;-33.902;151.160;2023-03-23T04:22:45;26.80;99.90
44647;DHT22;56315;-33.902;151.160;2023-03-23T04:25:17;26.70;99.90
44647;DHT22;56315;-33.902;151.160;2023-03-23T04:35:03;26.70;99.90
44647;DHT22;56315;-33.902;151.160;2023-03-23T04:37:31;26.80;99.90
44647;DHT22;56315;-33.902;151.160;2023-03-23T04:40:00;26.80;99.90
44647;DHT22;56315;-33.902;151.160;2023-03-23T04:42:38;26.90;99.90
44647;DHT22;56315;-33.902;151.160;2023-03-23T04:45:08;26.90;99.90
44647;DHT22;56315;-33.902;151.160;2023-03-23T04:50:11;26.80;99.90
44647;DHT22;56315;-33.902;151.160;2023-03-23T04:52:40;26.80;99.90
44647;DHT22;56315;-33.902;151.160;2023-03-23T04:55:12;26.90;99.90
44647;DHT22;56315;-33.902;151.160;2023-03-23T04:57:40;26.80;99.90
44647;DHT22;56315;-33.902;151.160;2023-03-23T05:00:08;26.50;99.90
44647;DHT22;56315;-33.902;151.160;2023-03-23T05:02:36;26.50;99.90
44647;DHT22;56315;-33.902;151.160;2023-03-23T05:05:10;26.50;99.90
44647;DHT22;56315;-33.902;151.160;2023-03-23T05:07:38;26.40;99.90
44647;DHT22;56315;-33.902;151.160;2023-03-23T05:10:07;26.40;99.90
44647;DHT22;56315;-33.902;151.160;2023-03-23T05:12:35;26.40;99.90
44647;DHT22;56315;-33.902;151.160;2023-03-23T05:15:04;26.20;99.90
44647;DHT22;56315;-33.902;151.160;2023-03-23T05:17:33;26.10;99.90
44647;DHT22;56315;-33.902;151.160;2023-03-23T05:20:01;26.00;99.90
44647;DHT22;56315;-33.902;151.160;2023-03-23T05:22:31;26.00;99.90
44647;DHT22;56315;-33.902;151.160;2023-03-23T05:25:01;25.90;99.90
44647;DHT22;56315;-33.902;151.160;2023-03-23T05:27:32;25.80;99.90
44647;DHT22;56315;-33.902;151.160;2023-03-23T05:29:59;25.70;99.90
44647;DHT22;56315;-33.902;151.160;2023-03-23T05:32:28;25.70;99.90
44647;DHT22;56315;-33.902;151.160;2023-03-23T05:35:01;25.60;99.90
44647;DHT22;56315;-33.902;151.160;2023-03-23T05:37:30;25.60;99.90
44647;DHT22;56315;-33.902;151.160;2023-03-23T05:40:00;25.60;99.90
44647;DHT22;56315;-33.902;151.160;2023-03-23T05:42:36;25.50;99.90
44647;DHT22;56315;-33.902;151.160;2023-03-23T05:45:04;25.40;99.90
44647;DHT22;56315;-33.902;151.160;2023-03-23T05:47:32;25.30;99.90
44647;DHT22;56315;-33.902;151.160;2023-03-23T05:49:59;25.20;99.90
44647;DHT22;56315;-33.902;151.160;2023-03-23T05:52:27;25.20;99.90
44647;DHT22;56315;-33.902;151.160;2023-03-23T05:54:54;25.00;99.90
44647;DHT22;56315;-33.902;151.160;2023-03-23T05:57:21;24.90;99.90
44647;DHT22;56315;-33.902;151.160;2023-03-23T05:59:49;24.90;99.90
44647;DHT22;56315;-33.902;151.160;2023-03-23T06:02:16;24.80;99.90
44647;DHT22;56315;-33.902;151.160;2023-03-23T06:04:43;24.70;99.90
44647;DHT22;56315;-33.902;151.160;2023-03-23T06:07:11;24.50;99.90
44647;DHT22;56315;-33.902;151.160;2023-03-23T06:09:41;24.30;99.90
44647;DHT22;56315;-33.902;151.160;2023-03-23T06:12:09;24.10;99.90
44647;DHT22;56315;-33.902;151.160;2023-03-23T06:14:37;24.00;99.90
44647;DHT22;56315;-33.902;151.160;2023-03-23T06:17:05;23.90;99.90
44647;DHT22;56315;-33.902;151.160;2023-03-23T06:19:32;23.80;99.90
44647;DHT22;56315;-33.902;151.160;2023-03-23T06:22:00;23.60;99.90
44647;DHT22;56315;-33.902;151.160;2023-03-23T06:24:28;23.40;99.90
44647;DHT22;56315;-33.902;151.160;2023-03-23T06:26:55;23.20;99.90
44647;DHT22;56315;-33.902;151.160;2023-03-23T06:29:23;23.10;99.90
44647;DHT22;56315;-33.902;151.160;2023-03-23T06:31:54;22.90;99.90
44647;DHT22;56315;-33.902;151.160;2023-03-23T06:34:23;22.70;99.90
44647;DHT22;56315;-33.902;151.160;2023-03-23T06:36:51;22.50;99.90
44647;DHT22;56315;-33.902;151.160;2023-03-23T06:39:20;22.40;99.90
44647;DHT22;56315;-33.902;151.160;2023-03-23T06:41:49;22.40;99.90
44647;DHT22;56315;-33.902;151.160;2023-03-23T06:44:16;22.50;99.90
44647;DHT22;56315;-33.902;151.160;2023-03-23T06:46:43;22.60;99.90
44647;DHT22;56315;-33.902;151.160;2023-03-23T06:49:11;22.50;99.90
44647;DHT22;56315;-33.902;151.160;2023-03-23T06:51:38;22.30;99.90
44647;DHT22;56315;-33.902;151.160;2023-03-23T06:54:05;22.20;99.90
44647;DHT22;56315;-33.902;151.160;2023-03-23T06:56:32;22.20;99.90
44647;DHT22;56315;-33.902;151.160;2023-03-23T06:59:00;22.20;99.90
44647;DHT22;56315;-33.902;151.160;2023-03-23T07:01:27;22.30;99.90
44647;DHT22;56315;-33.902;151.160;2023-03-23T07:03:55;22.20;99.90
44647;DHT22;56315;-33.902;151.160;2023-03-23T07:06:23;22.20;99.90
44647;DHT22;56315;-33.902;151.160;2023-03-23T07:08:51;22.10;99.90
44647;DHT22;56315;-33.902;151.160;2023-03-23T07:11:18;22.00;99.90
44647;DHT22;56315;-33.902;151.160;2023-03-23T07:13:46;21.90;99.90
44647;DHT22;56315;-33.902;151.160;2023-03-23T07:16:13;21.80;99.90
44647;DHT22;56315;-33.902;151.160;2023-03-23T07:18:40;21.80;99.90
44647;DHT22;56315;-33.902;151.160;2023-03-23T07:21:08;21.80;99.90
44647;DHT22;56315;-33.902;151.160;2023-03-23T07:23:35;21.70;99.90
44647;DHT22;56315;-33.902;151.160;2023-03-23T07:26:03;21.70;99.90
44647;DHT22;56315;-33.902;151.160;2023-03-23T07:28:30;21.60;99.90
44647;DHT22;56315;-33.902;151.160;2023-03-23T07:30:57;21.60;99.90
44647;DHT22;56315;-33.902;151.160;2023-03-23T07:33:25;21.50;99.90
44647;DHT22;56315;-33.902;151.160;2023-03-23T07:35:53;21.50;99.90
44647;DHT22;56315;-33.902;151.160;2023-03-23T07:38:21;21.50;99.90
44647;DHT22;56315;-33.902;151.160;2023-03-23T07:40:48;21.40;99.90
44647;DHT22;56315;-33.902;151.160;2023-03-23T07:43:15;21.40;99.90
44647;DHT22;56315;-33.902;151.160;2023-03-23T07:45:43;21.40;99.90
44647;DHT22;56315;-33.902;151.160;2023-03-23T07:48:10;21.50;99.90
44647;DHT22;56315;-33.902;151.160;2023-03-23T07:50:37;21.50;99.90
44647;DHT22;56315;-33.902;151.160;2023-03-23T07:53:05;21.50;99.90
44647;DHT22;56315;-33.902;151.160;2023-03-23T07:55:32;21.50;99.90
44647;DHT22;56315;-33.902;151.160;2023-03-23T07:57:59;21.40;99.90
44647;DHT22;56315;-33.902;151.160;2023-03-23T08:00:27;21.40;99.90
44647;DHT22;56315;-33.902;151.160;2023-03-23T08:02:57;21.40;99.90
44647;DHT22;56315;-33.902;151.160;2023-03-23T08:05:26;21.30;99.90
44647;DHT22;56315;-33.902;151.160;2023-03-23T08:07:54;21.20;99.90
44647;DHT22;56315;-33.902;151.160;2023-03-23T08:10:23;21.30;99.90
44647;DHT22;56315;-33.902;151.160;2023-03-23T08:12:53;21.20;99.90
44647;DHT22;56315;-33.902;151.160;2023-03-23T08:15:20;21.20;99.90
44647;DHT22;56315;-33.902;151.160;2023-03-23T08:17:48;21.20;99.90
44647;DHT22;56315;-33.902;151.160;2023-03-23T08:20:16;21.10;99.90
44647;DHT22;56315;-33.902;151.160;2023-03-23T08:22:49;21.10;99.90
44647;DHT22;56315;-33.902;151.160;2023-03-23T08:25:19;21.00;99.90
44647;DHT22;56315;-33.902;151.160;2023-03-23T08:27:47;21.00;99.90
44647;DHT22;56315;-33.902;151.160;2023-03-23T08:30:16;21.00;99.90
44647;DHT22;56315;-33.902;151.160;2023-03-23T08:32:46;21.10;99.90
44647;DHT22;56315;-33.902;151.160;2023-03-23T08:35:14;21.10;99.90
44647;DHT22;56315;-33.902;151.160;2023-03-23T08:37:42;21.10;99.90
44647;DHT22;56315;-33.902;151.160;2023-03-23T08:40:11;21.10;99.90
44647;DHT22;56315;-33.902;151.160;2023-03-23T08:42:44;21.10;99.90
44647;DHT22;56315;-33.902;151.160;2023-03-23T08:45:20;21.10;99.90
44647;DHT22;56315;-33.902;151.160;2023-03-23T08:47:49;21.10;99.90
44647;DHT22;56315;-33.902;151.160;2023-03-23T08:50:21;21.10;99.90
44647;DHT22;56315;-33.902;151.160;2023-03-23T08:52:49;21.10;99.90
44647;DHT22;56315;-33.902;151.160;2023-03-23T08:55:17;21.00;99.90
44647;DHT22;56315;-33.902;151.160;2023-03-23T08:57:47;21.10;99.90
44647;DHT22;56315;-33.902;151.160;2023-03-23T09:00:19;21.10;99.90
44647;DHT22;56315;-33.902;151.160;2023-03-23T09:02:52;21.10;99.90
44647;DHT22;56315;-33.902;151.160;2023-03-23T09:05:23;21.10;99.90
44647;DHT22;56315;-33.902;151.160;2023-03-23T09:07:53;21.10;99.90
44647;DHT22;56315;-33.902;151.160;2023-03-23T09:10:22;21.10;99.90
44647;DHT22;56315;-33.902;151.160;2023-03-23T09:12:52;21.10;99.90
44647;DHT22;56315;-33.902;151.160;2023-03-23T09:15:20;21.10;99.90
44647;DHT22;56315;-33.902;151.160;2023-03-23T09:17:50;21.10;99.90
44647;DHT22;56315;-33.902;151.160;2023-03-23T09:20:25;21.10;99.90
44647;DHT22;56315;-33.902;151.160;2023-03-23T09:22:56;21.10;99.90
44647;DHT22;56315;-33.902;151.160;2023-03-23T09:25:26;21.00;99.90
44647;DHT22;56315;-33.902;151.160;2023-03-23T09:27:56;21.00;99.90
44647;DHT22;56315;-33.902;151.160;2023-03-23T09:30:27;21.10;99.90
44647;DHT22;56315;-33.902;151.160;2023-03-23T09:32:55;21.10;99.90
44647;DHT22;56315;-33.902;151.160;2023-03-23T09:35:24;21.20;99.90
44647;DHT22;56315;-33.902;151.160;2023-03-23T09:37:52;21.10;99.90
44647;DHT22;56315;-33.902;151.160;2023-03-23T09:40:26;21.10;99.90
44647;DHT22;56315;-33.902;151.160;2023-03-23T09:54:30;21.00;99.90
44647;DHT22;56315;-33.902;151.160;2023-03-23T09:57:00;21.00;99.90
44647;DHT22;56315;-33.902;151.160;2023-03-23T09:59:51;21.00;99.90
44647;DHT22;56315;-33.902;151.160;2023-03-23T10:05:34;21.10;99.90
44647;DHT22;56315;-33.902;151.160;2023-03-23T10:08:13;21.10;99.90
44647;DHT22;56315;-33.902;151.160;2023-03-23T10:13:44;21.10;99.90
44647;DHT22;56315;-33.902;151.160;2023-03-23T10:16:35;21.10;99.90
44647;DHT22;56315;-33.902;151.160;2023-03-23T10:22:18;21.00;99.90
44647;DHT22;56315;-33.902;151.160;2023-03-23T10:27:33;20.80;99.90
44647;DHT22;56315;-33.902;151.160;2023-03-23T10:30:13;20.80;99.90
44647;DHT22;56315;-33.902;151.160;2023-03-23T10:32:58;20.70;99.90
44647;DHT22;56315;-33.902;151.160;2023-03-23T10:35:39;20.70;99.90
44647;DHT22;56315;-33.902;151.160;2023-03-23T10:38:37;20.70;99.90
44647;DHT22;56315;-33.902;151.160;2023-03-23T10:41:14;20.70;99.90
44647;DHT22;56315;-33.902;151.160;2023-03-23T10:43:44;20.70;99.90
44647;DHT22;56315;-33.902;151.160;2023-03-23T10:47:32;20.60;99.90
44647;DHT22;56315;-33.902;151.160;2023-03-23T10:52:11;20.60;99.90
44647;DHT22;56315;-33.902;151.160;2023-03-23T10:55:34;20.50;99.90
44647;DHT22;56315;-33.902;151.160;2023-03-23T10:57:41;20.60;99.90
44647;DHT22;56315;-33.902;151.160;2023-03-23T11:00:21;20.60;99.90
44647;DHT22;56315;-33.902;151.160;2023-03-23T11:03:01;20.50;99.90
44647;DHT22;56315;-33.902;151.160;2023-03-23T11:05:51;20.50;99.90
44647;DHT22;56315;-33.902;151.160;2023-03-23T11:08:27;20.50;99.90
44647;DHT22;56315;-33.902;151.160;2023-03-23T11:11:09;20.50;99.90
44647;DHT22;56315;-33.902;151.160;2023-03-23T11:13:45;20.40;99.90
44647;DHT22;56315;-33.902;151.160;2023-03-23T11:16:24;20.40;99.90
44647;DHT22;56315;-33.902;151.160;2023-03-23T11:18:51;20.40;99.90
44647;DHT22;56315;-33.902;151.160;2023-03-23T11:21:21;20.40;99.90
44647;DHT22;56315;-33.902;151.160;2023-03-23T11:23:53;20.40;99.90
44647;DHT22;56315;-33.902;151.160;2023-03-23T11:26:30;20.30;99.90
44647;DHT22;56315;-33.902;151.160;2023-03-23T11:29:11;20.30;99.90
44647;DHT22;56315;-33.902;151.160;2023-03-23T11:31:45;20.30;99.90
44647;DHT22;56315;-33.902;151.160;2023-03-23T11:34:29;20.30;99.90
44647;DHT22;56315;-33.902;151.160;2023-03-23T11:37:07;20.30;99.90
44647;DHT22;56315;-33.902;151.160;2023-03-23T11:42:23;20.20;99.90
44647;DHT22;56315;-33.902;151.160;2023-03-23T11:45:15;20.20;99.90
44647;DHT22;56315;-33.902;151.160;2023-03-23T11:48:03;20.20;99.90
44647;DHT22;56315;-33.902;151.160;2023-03-23T11:58:17;20.20;99.90
44647;DHT22;56315;-33.902;151.160;2023-03-23T12:04:12;20.10;99.90
44647;DHT22;56315;-33.902;151.160;2023-03-23T12:10:01;20.10;99.90
44647;DHT22;56315;-33.902;151.160;2023-03-23T12:18:24;20.10;99.90
44647;DHT22;56315;-33.902;151.160;2023-03-23T12:27:01;20.10;99.90
44647;DHT22;56315;-33.902;151.160;2023-03-23T12:34:54;19.90;99.90
44647;DHT22;56315;-33.902;151.160;2023-03-23T12:37:51;19.90;99.90
44647;DHT22;56315;-33.902;151.160;2023-03-23T12:44:06;19.90;99.90
44647;DHT22;56315;-33.902;151.160;2023-03-23T12:46:52;19.90;99.90
44647;DHT22;56315;-33.902;151.160;2023-03-23T12:52:18;19.90;99.90
44647;DHT22;56315;-33.902;151.160;2023-03-23T12:55:18;19.90;99.90
44647;DHT22;56315;-33.902;151.160;2023-03-23T12:58:01;19.90;99.90
44647;DHT22;56315;-33.902;151.160;2023-03-23T13:00:55;19.90;99.90
44647;DHT22;56315;-33.902;151.160;2023-03-23T13:04:04;19.90;99.90
44647;DHT22;56315;-33.902;151.160;2023-03-23T13:06:46;19.80;99.90
44647;DHT22;56315;-33.902;151.160;2023-03-23T13:12:03;19.80;99.90
44647;DHT22;56315;-33.902;151.160;2023-03-23T13:23:21;19.80;99.90
44647;DHT22;56315;-33.902;151.160;2023-03-23T13:26:01;19.70;99.90
44647;DHT22;56315;-33.902;151.160;2023-03-23T13:28:32;19.60;99.90
44647;DHT22;56315;-33.902;151.160;2023-03-23T13:31:02;19.60;99.90
44647;DHT22;56315;-33.902;151.160;2023-03-23T13:33:34;19.50;99.90
44647;DHT22;56315;-33.902;151.160;2023-03-23T13:36:10;19.50;99.90
44647;DHT22;56315;-33.902;151.160;2023-03-23T13:38:47;19.50;99.90
44647;DHT22;56315;-33.902;151.160;2023-03-23T13:41:17;19.50;99.90
44647;DHT22;56315;-33.902;151.160;2023-03-23T13:43:46;19.60;99.90
44647;DHT22;56315;-33.902;151.160;2023-03-23T13:49:19;19.60;99.90
44647;DHT22;56315;-33.902;151.160;2023-03-23T13:52:00;19.60;99.90
44647;DHT22;56315;-33.902;151.160;2023-03-23T13:54:38;19.60;99.90
44647;DHT22;56315;-33.902;151.160;2023-03-23T13:57:36;19.60;99.90
44647;DHT22;56315;-33.902;151.160;2023-03-23T14:00:25;19.60;99.90
44647;DHT22;56315;-33.902;151.160;2023-03-23T14:03:23;19.50;99.90
44647;DHT22;56315;-33.902;151.160;2023-03-23T14:06:02;19.50;99.90
44647;DHT22;56315;-33.902;151.160;2023-03-23T14:11:13;19.50;99.90
44647;DHT22;56315;-33.902;151.160;2023-03-23T14:19:04;19.50;99.90
44647;DHT22;56315;-33.902;151.160;2023-03-23T14:21:38;19.50;99.90
44647;DHT22;56315;-33.902;151.160;2023-03-23T14:24:16;19.50;99.90
44647;DHT22;56315;-33.902;151.160;2023-03-23T14:26:45;19.50;99.90
44647;DHT22;56315;-33.902;151.160;2023-03-23T14:29:13;19.40;99.90
44647;DHT22;56315;-33.902;151.160;2023-03-23T14:31:41;19.40;99.90
44647;DHT22;56315;-33.902;151.160;2023-03-23T14:34:15;19.30;99.90
44647;DHT22;56315;-33.902;151.160;2023-03-23T14:36:45;19.30;99.90
44647;DHT22;56315;-33.902;151.160;2023-03-23T14:39:28;19.30;99.90
44647;DHT22;56315;-33.902;151.160;2023-03-23T14:42:26;19.30;99.90
44647;DHT22;56315;-33.902;151.160;2023-03-23T14:44:54;19.30;99.90
44647;DHT22;56315;-33.902;151.160;2023-03-23T14:47:44;19.30;99.90
44647;DHT22;56315;-33.902;151.160;2023-03-23T14:50:28;19.40;99.90
44647;DHT22;56315;-33.902;151.160;2023-03-23T14:55:45;19.40;99.90
44647;DHT22;56315;-33.902;151.160;2023-03-23T14:58:15;19.30;99.90
44647;DHT22;56315;-33.902;151.160;2023-03-23T15:01:06;19.30;99.90
44647;DHT22;56315;-33.902;151.160;2023-03-23T15:03:55;19.30;99.90
44647;DHT22;56315;-33.902;151.160;2023-03-23T15:06:25;19.30;99.90
44647;DHT22;56315;-33.902;151.160;2023-03-23T15:08:56;19.30;99.90
44647;DHT22;56315;-33.902;151.160;2023-03-23T15:11:28;19.20;99.90
44647;DHT22;56315;-33.902;151.160;2023-03-23T15:14:16;19.20;99.90
44647;DHT22;56315;-33.902;151.160;2023-03-23T15:16:52;19.30;99.90
44647;DHT22;56315;-33.902;151.160;2023-03-23T15:19:40;19.30;99.90
44647;DHT22;56315;-33.902;151.160;2023-03-23T15:22:29;19.20;99.90
44647;DHT22;56315;-33.902;151.160;2023-03-23T15:30:27;19.20;99.90
44647;DHT22;56315;-33.902;151.160;2023-03-23T15:33:14;19.20;99.90
44647;DHT22;56315;-33.902;151.160;2023-03-23T15:35:50;19.20;99.90
44647;DHT22;56315;-33.902;151.160;2023-03-23T15:38:34;19.10;99.90
44647;DHT22;56315;-33.902;151.160;2023-03-23T15:41:05;19.10;99.90
44647;DHT22;56315;-33.902;151.160;2023-03-23T15:51:19;19.00;99.90
44647;DHT22;56315;-33.902;151.160;2023-03-23T15:53:47;19.00;99.90
44647;DHT22;56315;-33.902;151.160;2023-03-23T15:56:15;19.00;99.90
44647;DHT22;56315;-33.902;151.160;2023-03-23T15:58:42;19.00;99.90
44647;DHT22;56315;-33.902;151.160;2023-03-23T16:01:36;18.90;99.90
44647;DHT22;56315;-33.902;151.160;2023-03-23T16:04:13;19.00;99.90
44647;DHT22;56315;-33.902;151.160;2023-03-23T16:06:42;19.00;99.90
44647;DHT22;56315;-33.902;151.160;2023-03-23T16:09:15;18.90;99.90
44647;DHT22;56315;-33.902;151.160;2023-03-23T16:11:43;18.90;99.90
44647;DHT22;56315;-33.902;151.160;2023-03-23T16:14:10;18.90;99.90
44647;DHT22;56315;-33.902;151.160;2023-03-23T16:16:48;18.90;99.90
44647;DHT22;56315;-33.902;151.160;2023-03-23T16:19:18;18.90;99.90
44647;DHT22;56315;-33.902;151.160;2023-03-23T16:21:49;18.90;99.90
44647;DHT22;56315;-33.902;151.160;2023-03-23T16:24:16;18.80;99.90
44647;DHT22;56315;-33.902;151.160;2023-03-23T16:26:44;18.80;99.90
44647;DHT22;56315;-33.902;151.160;2023-03-23T16:29:13;18.90;99.90
44647;DHT22;56315;-33.902;151.160;2023-03-23T16:31:41;18.80;99.90
44647;DHT22;56315;-33.902;151.160;2023-03-23T16:34:08;18.80;99.90
44647;DHT22;56315;-33.902;151.160;2023-03-23T16:36:36;18.80;99.90
44647;DHT22;56315;-33.902;151.160;2023-03-23T16:39:03;18.80;99.90
44647;DHT22;56315;-33.902;151.160;2023-03-23T16:41:31;18.80;99.90
44647;DHT22;56315;-33.902;151.160;2023-03-23T16:43:58;18.80;99.90
44647;DHT22;56315;-33.902;151.160;2023-03-23T16:46:25;18.80;99.90
44647;DHT22;56315;-33.902;151.160;2023-03-23T16:48:53;18.70;99.90
44647;DHT22;56315;-33.902;151.160;2023-03-23T16:51:20;18.70;99.90
44647;DHT22;56315;-33.902;151.160;2023-03-23T16:53:47;18.70;99.90
44647;DHT22;56315;-33.902;151.160;2023-03-23T16:56:15;18.70;99.90
44647;DHT22;56315;-33.902;151.160;2023-03-23T16:58:42;18.80;99.90
44647;DHT22;56315;-33.902;151.160;2023-03-23T17:01:09;18.70;99.90
44647;DHT22;56315;-33.902;151.160;2023-03-23T17:03:37;18.70;99.90
44647;DHT22;56315;-33.902;151.160;2023-03-23T17:06:05;18.70;99.90
44647;DHT22;56315;-33.902;151.160;2023-03-23T17:08:32;18.60;99.90
44647;DHT22;56315;-33.902;151.160;2023-03-23T17:10:59;18.60;99.90
44647;DHT22;56315;-33.902;151.160;2023-03-23T17:13:27;18.60;99.90
44647;DHT22;56315;-33.902;151.160;2023-03-23T17:15:55;18.60;99.90
44647;DHT22;56315;-33.902;151.160;2023-03-23T17:18:23;18.60;99.90
44647;DHT22;56315;-33.902;151.160;2023-03-23T17:20:52;18.60;99.90
44647;DHT22;56315;-33.902;151.160;2023-03-23T17:23:20;18.60;99.90
44647;DHT22;56315;-33.902;151.160;2023-03-23T17:25:47;18.60;99.90
44647;DHT22;56315;-33.902;151.160;2023-03-23T17:28:15;18.60;99.90
44647;DHT22;56315;-33.902;151.160;2023-03-23T17:30:43;18.70;99.90
44647;DHT22;56315;-33.902;151.160;2023-03-23T17:33:11;18.70;99.90
44647;DHT22;56315;-33.902;151.160;2023-03-23T17:35:40;18.60;99.90
44647;DHT22;56315;-33.902;151.160;2023-03-23T17:38:07;18.60;99.90
44647;DHT22;56315;-33.902;151.160;2023-03-23T17:40:34;18.60;99.90
44647;DHT22;56315;-33.902;151.160;2023-03-23T17:43:02;18.50;99.90
44647;DHT22;56315;-33.902;151.160;2023-03-23T17:45:29;18.50;99.90
44647;DHT22;56315;-33.902;151.160;2023-03-23T17:47:56;18.50;99.90